createdAt,value
2019-05-23T00:00:32.986Z,1015.19
2019-05-23T00:01:32.978Z,1015.19
2019-05-23T00:02:32.975Z,1015.15
2019-05-23T00:03:32.971Z,1015.16
2019-05-23T00:04:32.967Z,1015.15
2019-05-23T00:05:32.961Z,1015.18
2019-05-23T00:06:32.953Z,1015.19
2019-05-23T00:07:32.948Z,1015.19
2019-05-23T00:08:32.936Z,1015.17
2019-05-23T00:09:32.932Z,1015.15
2019-05-23T00:10:32.928Z,1015.23
2019-05-23T00:11:32.919Z,1015.18
2019-05-23T00:12:32.917Z,1015.17
2019-05-23T00:13:32.911Z,1015.15
2019-05-23T00:14:32.904Z,1015.15
2019-05-23T00:15:32.892Z,1015.16
2019-05-23T00:16:32.898Z,1015.17
2019-05-23T00:17:32.888Z,1015.23
2019-05-23T00:18:32.878Z,1015.17
2019-05-23T00:19:32.879Z,1015.23
2019-05-23T00:20:32.862Z,1015.18
2019-05-23T00:21:32.865Z,1015.19
2019-05-23T00:22:32.848Z,1015.23
2019-05-23T00:23:32.840Z,1015.21
2019-05-23T00:24:32.839Z,1015.21
2019-05-23T00:25:32.830Z,1015.15
2019-05-23T00:26:32.827Z,1015.18
2019-05-23T00:27:32.820Z,1015.21
2019-05-23T00:28:32.810Z,1015.14
2019-05-23T00:29:32.803Z,1015.19
2019-05-23T00:30:32.801Z,1015.13
2019-05-23T00:31:32.796Z,1015.15
2019-05-23T00:32:32.786Z,1015.16
2019-05-23T00:33:32.786Z,1015.15
2019-05-23T00:34:32.771Z,1015.14
2019-05-23T00:35:32.762Z,1015.16
2019-05-23T00:36:32.763Z,1015.20
2019-05-23T00:37:32.754Z,1015.14
2019-05-23T00:38:32.748Z,1015.14
2019-05-23T00:39:32.741Z,1015.16
2019-05-23T00:40:32.730Z,1015.14
2019-05-23T00:41:32.727Z,1015.24
2019-05-23T00:42:32.721Z,1015.20
2019-05-23T00:43:32.714Z,1015.19
2019-05-23T00:44:32.714Z,1015.16
2019-05-23T00:45:32.717Z,1015.21
2019-05-23T00:46:32.693Z,1015.16
2019-05-23T00:47:32.688Z,1015.13
2019-05-23T00:48:32.683Z,1015.11
2019-05-23T00:49:32.675Z,1015.19
2019-05-23T00:50:32.669Z,1015.20
2019-05-23T00:51:32.660Z,1015.16
2019-05-23T00:52:32.650Z,1015.16
2019-05-23T00:53:32.646Z,1015.12
2019-05-23T00:54:32.666Z,1015.15
2019-05-23T00:55:32.629Z,1015.12
2019-05-23T00:56:32.635Z,1015.12
2019-05-23T00:57:32.620Z,1015.12
2019-05-23T00:58:32.632Z,1015.11
2019-05-23T00:59:32.611Z,1015.12
2019-05-23T01:00:32.612Z,1015.12
2019-05-23T01:01:32.595Z,1015.11
2019-05-23T01:02:32.590Z,1015.12
2019-05-23T01:03:32.582Z,1015.07
2019-05-23T01:04:32.573Z,1015.10
2019-05-23T01:05:32.567Z,1015.04
2019-05-23T01:06:32.555Z,1015.07
2019-05-23T01:07:32.552Z,1015.08
2019-05-23T01:08:32.554Z,1015.04
2019-05-23T01:09:32.570Z,1015.09
2019-05-23T01:10:32.534Z,1015.01
2019-05-23T01:11:32.526Z,1015.04
2019-05-23T01:12:32.516Z,1014.99
2019-05-23T01:13:32.509Z,1015.00
2019-05-23T01:14:32.503Z,1015.01
2019-05-23T01:15:32.498Z,1015.02
2019-05-23T01:16:32.493Z,1015.07
2019-05-23T01:17:32.487Z,1015.02
2019-05-23T01:18:32.476Z,1015.04
2019-05-23T01:19:32.469Z,1015.05
2019-05-23T01:20:32.465Z,1015.02
2019-05-23T01:21:32.459Z,1015.02
2019-05-23T01:22:32.449Z,1015.02
2019-05-23T01:23:32.441Z,1014.99
2019-05-23T01:24:32.443Z,1015.02
2019-05-23T01:25:32.424Z,1015.06
2019-05-23T01:26:32.418Z,1015.03
2019-05-23T01:27:32.413Z,1015.04
2019-05-23T01:28:32.408Z,1015.01
2019-05-23T01:29:37.651Z,1015.01
2019-05-23T01:30:32.396Z,1015.01
2019-05-23T01:31:32.388Z,1015.04
2019-05-23T01:32:32.379Z,1014.99
2019-05-23T01:33:32.371Z,1015.03
2019-05-23T01:34:32.371Z,1015.00
2019-05-23T01:35:32.412Z,1014.98
2019-05-23T01:36:32.350Z,1015.01
2019-05-23T01:37:32.343Z,1014.97
2019-05-23T01:38:32.332Z,1014.95
2019-05-23T01:39:32.326Z,1014.96
2019-05-23T01:40:32.322Z,1014.93
2019-05-23T01:41:32.317Z,1014.91
2019-05-23T01:42:32.309Z,1014.92
2019-05-23T01:43:32.302Z,1014.94
2019-05-23T01:44:32.289Z,1014.89
2019-05-23T01:45:32.286Z,1014.91
2019-05-23T01:46:32.278Z,1014.89
2019-05-23T01:47:32.273Z,1014.92
2019-05-23T01:48:32.266Z,1014.90
2019-05-23T01:49:32.261Z,1014.93
2019-05-23T01:50:32.250Z,1014.93
2019-05-23T01:51:32.243Z,1014.88
2019-05-23T01:52:32.239Z,1014.87
2019-05-23T01:53:32.234Z,1014.88
2019-05-23T01:54:32.224Z,1014.91
2019-05-23T01:55:32.216Z,1014.86
2019-05-23T01:56:32.212Z,1014.85
2019-05-23T01:57:32.197Z,1014.79
2019-05-23T01:58:32.191Z,1014.84
2019-05-23T01:59:32.194Z,1014.83
2019-05-23T02:00:32.182Z,1014.83
2019-05-23T02:01:32.173Z,1014.86
2019-05-23T02:02:32.168Z,1014.84
2019-05-23T02:03:32.161Z,1014.82
2019-05-23T02:04:32.171Z,1014.84
2019-05-23T02:05:32.145Z,1014.82
2019-05-23T02:06:32.140Z,1014.87
2019-05-23T02:07:32.183Z,1014.85
2019-05-23T02:08:32.126Z,1014.85
2019-05-23T02:09:32.113Z,1014.77
2019-05-23T02:10:32.103Z,1014.78
2019-05-23T02:11:32.097Z,1014.73
2019-05-23T02:12:32.093Z,1014.75
2019-05-23T02:13:32.087Z,1014.80
2019-05-23T02:14:32.084Z,1014.78
2019-05-23T02:15:32.077Z,1014.73
2019-05-23T02:16:32.070Z,1014.74
2019-05-23T02:17:32.058Z,1014.71
2019-05-23T02:18:32.046Z,1014.74
2019-05-23T02:19:32.038Z,1014.73
2019-05-23T02:20:32.034Z,1014.71
2019-05-23T02:21:32.028Z,1014.68
2019-05-23T02:22:32.025Z,1014.65
2019-05-23T02:23:32.008Z,1014.68
2019-05-23T02:24:32.013Z,1014.70
2019-05-23T02:25:31.997Z,1014.65
2019-05-23T02:26:31.992Z,1014.68
2019-05-23T02:27:31.984Z,1014.67
2019-05-23T02:28:31.973Z,1014.63
2019-05-23T02:29:32.025Z,1014.69
2019-05-23T02:30:35.702Z,1014.64
2019-05-23T02:31:31.956Z,1014.67
2019-05-23T02:32:31.947Z,1014.62
2019-05-23T02:33:31.943Z,1014.63
2019-05-23T02:34:31.933Z,1014.65
2019-05-23T02:35:31.982Z,1014.61
2019-05-23T02:36:31.918Z,1014.66
2019-05-23T02:37:31.905Z,1014.67
2019-05-23T02:38:31.909Z,1014.68
2019-05-23T02:39:31.893Z,1014.67
2019-05-23T02:40:31.882Z,1014.64
2019-05-23T02:41:31.875Z,1014.63
2019-05-23T02:42:31.875Z,1014.63
2019-05-23T02:43:31.864Z,1014.62
2019-05-23T02:44:31.864Z,1014.60
2019-05-23T02:45:31.865Z,1014.59
2019-05-23T02:46:31.843Z,1014.61
2019-05-23T02:47:31.835Z,1014.58
2019-05-23T02:48:31.834Z,1014.56
2019-05-23T02:49:31.820Z,1014.58
2019-05-23T02:50:31.808Z,1014.57
2019-05-23T02:51:31.799Z,1014.57
2019-05-23T02:52:31.805Z,1014.57
2019-05-23T02:53:31.790Z,1014.58
2019-05-23T02:54:31.786Z,1014.59
2019-05-23T02:55:31.772Z,1014.57
2019-05-23T02:56:31.775Z,1014.59
2019-05-23T02:57:31.759Z,1014.59
2019-05-23T02:58:31.754Z,1014.60
2019-05-23T02:59:31.761Z,1014.59
2019-05-23T03:00:31.736Z,1014.59
2019-05-23T03:01:31.823Z,1014.58
2019-05-23T03:02:31.718Z,1014.55
2019-05-23T03:03:31.711Z,1014.57
2019-05-23T03:04:31.707Z,1014.59
2019-05-23T03:05:31.700Z,1014.54
2019-05-23T03:06:31.694Z,1014.56
2019-05-23T03:07:31.685Z,1014.53
2019-05-23T03:08:31.671Z,1014.52
2019-05-23T03:09:31.663Z,1014.53
2019-05-23T03:10:31.660Z,1014.54
2019-05-23T03:11:31.652Z,1014.51
2019-05-23T03:12:31.642Z,1014.48
2019-05-23T03:13:31.632Z,1014.51
2019-05-23T03:14:31.629Z,1014.51
2019-05-23T03:15:31.621Z,1014.45
2019-05-23T03:16:31.617Z,1014.50
2019-05-23T03:17:31.610Z,1014.46
2019-05-23T03:18:34.549Z,1014.46
2019-05-23T03:19:31.594Z,1014.44
2019-05-23T03:20:31.581Z,1014.50
2019-05-23T03:21:31.573Z,1014.49
2019-05-23T03:22:31.646Z,1014.49
2019-05-23T03:23:31.559Z,1014.45
2019-05-23T03:24:31.557Z,1014.50
2019-05-23T03:25:31.548Z,1014.45
2019-05-23T03:26:31.538Z,1014.48
2019-05-23T03:27:31.531Z,1014.51
2019-05-23T03:28:31.526Z,1014.49
2019-05-23T03:29:31.523Z,1014.48
2019-05-23T03:30:31.514Z,1014.51
2019-05-23T03:31:32.817Z,1014.49
2019-05-23T03:32:38.200Z,1014.47
2019-05-23T03:33:31.481Z,1014.47
2019-05-23T03:34:31.475Z,1014.48
2019-05-23T03:35:31.471Z,1014.47
2019-05-23T03:36:31.465Z,1014.43
2019-05-23T03:37:31.456Z,1014.45
2019-05-23T03:38:31.450Z,1014.44
2019-05-23T03:39:31.441Z,1014.50
2019-05-23T03:40:31.430Z,1014.50
2019-05-23T03:41:31.433Z,1014.44
2019-05-23T03:42:31.421Z,1014.49
2019-05-23T03:43:31.411Z,1014.47
2019-05-23T03:44:31.405Z,1014.43
2019-05-23T03:45:31.391Z,1014.47
2019-05-23T03:46:31.380Z,1014.43
2019-05-23T03:47:31.374Z,1014.41
2019-05-23T03:48:31.380Z,1014.40
2019-05-23T03:49:31.367Z,1014.45
2019-05-23T03:50:31.357Z,1014.45
2019-05-23T03:51:31.349Z,1014.46
2019-05-23T03:52:31.337Z,1014.45
2019-05-23T03:53:31.330Z,1014.42
2019-05-23T03:54:31.322Z,1014.44
2019-05-23T03:55:31.320Z,1014.45
2019-05-23T03:56:31.309Z,1014.42
2019-05-23T03:57:31.304Z,1014.43
2019-05-23T03:58:31.292Z,1014.44
2019-05-23T03:59:31.359Z,1014.47
2019-05-23T04:00:31.281Z,1014.43
2019-05-23T04:01:46.687Z,1014.40
2019-05-23T04:02:31.268Z,1014.46
2019-05-23T04:03:31.256Z,1014.45
2019-05-23T04:04:31.243Z,1014.43
2019-05-23T04:05:31.237Z,1014.46
2019-05-23T04:06:31.228Z,1014.47
2019-05-23T04:07:31.225Z,1014.50
2019-05-23T04:08:31.217Z,1014.49
2019-05-23T04:09:31.211Z,1014.48
2019-05-23T04:10:31.207Z,1014.47
2019-05-23T04:11:31.198Z,1014.51
2019-05-23T04:12:31.186Z,1014.51
2019-05-23T04:13:31.251Z,1014.53
2019-05-23T04:14:31.174Z,1014.55
2019-05-23T04:15:31.167Z,1014.55
2019-05-23T04:16:31.157Z,1014.49
2019-05-23T04:17:31.149Z,1014.52
2019-05-23T04:18:31.137Z,1014.53
2019-05-23T04:19:31.130Z,1014.53
2019-05-23T04:20:31.129Z,1014.54
2019-05-23T04:21:31.120Z,1014.51
2019-05-23T04:22:31.115Z,1014.53
2019-05-23T04:23:31.109Z,1014.60
2019-05-23T04:24:31.097Z,1014.60
2019-05-23T04:25:31.090Z,1014.52
2019-05-23T04:26:31.080Z,1014.54
2019-05-23T04:27:31.077Z,1014.52
2019-05-23T04:28:31.069Z,1014.50
2019-05-23T04:29:31.062Z,1014.47
2019-05-23T04:30:31.056Z,1014.55
2019-05-23T04:31:31.046Z,1014.54
2019-05-23T04:32:31.039Z,1014.54
2019-05-23T04:33:31.038Z,1014.51
2019-05-23T04:34:31.030Z,1014.48
2019-05-23T04:35:31.021Z,1014.51
2019-05-23T04:36:31.024Z,1014.55
2019-05-23T04:37:31.004Z,1014.51
2019-05-23T04:38:30.997Z,1014.50
2019-05-23T04:39:30.989Z,1014.46
2019-05-23T04:40:30.987Z,1014.52
2019-05-23T04:41:30.980Z,1014.58
2019-05-23T04:42:30.970Z,1014.58
2019-05-23T04:43:30.988Z,1014.49
2019-05-23T04:44:30.960Z,1014.53
2019-05-23T04:45:30.944Z,1014.57
2019-05-23T04:46:30.945Z,1014.60
2019-05-23T04:47:30.938Z,1014.63
2019-05-23T04:48:30.926Z,1014.55
2019-05-23T04:49:30.926Z,1014.55
2019-05-23T04:50:30.917Z,1014.57
2019-05-23T04:51:30.908Z,1014.57
2019-05-23T04:52:30.912Z,1014.57
2019-05-23T04:53:30.913Z,1014.61
2019-05-23T04:54:30.895Z,1014.66
2019-05-23T04:55:30.889Z,1014.69
2019-05-23T04:56:30.879Z,1014.67
2019-05-23T04:57:30.871Z,1014.72
2019-05-23T04:58:30.866Z,1014.76
2019-05-23T04:59:30.860Z,1014.85
2019-05-23T05:00:30.858Z,1014.79
2019-05-23T05:01:30.854Z,1014.87
2019-05-23T05:02:30.845Z,1014.85
2019-05-23T05:03:30.836Z,1014.92
2019-05-23T05:04:30.843Z,1014.90
2019-05-23T05:05:30.838Z,1014.96
2019-05-23T05:06:30.831Z,1014.93
2019-05-23T05:07:30.830Z,1015.03
2019-05-23T05:08:30.817Z,1015.03
2019-05-23T05:09:32.140Z,1015.11
2019-05-23T05:10:30.851Z,1015.09
2019-05-23T05:11:30.909Z,1015.07
2019-05-23T05:12:30.804Z,1015.04
2019-05-23T05:13:30.806Z,1015.10
2019-05-23T05:14:30.797Z,1015.06
2019-05-23T05:15:30.800Z,1015.07
2019-05-23T05:16:31.141Z,1015.10
2019-05-23T05:17:30.782Z,1015.14
2019-05-23T05:18:30.786Z,1015.12
2019-05-23T05:19:30.783Z,1015.20
2019-05-23T05:20:30.775Z,1015.16
2019-05-23T05:21:30.771Z,1015.20
2019-05-23T05:22:30.773Z,1015.17
2019-05-23T05:23:30.772Z,1015.17
2019-05-23T05:24:30.814Z,1015.22
2019-05-23T05:25:30.770Z,1015.26
2019-05-23T05:26:30.767Z,1015.21
2019-05-23T05:27:30.764Z,1015.29
2019-05-23T05:28:30.758Z,1015.34
2019-05-23T05:29:30.760Z,1015.42
2019-05-23T05:30:30.758Z,1015.43
2019-05-23T05:31:30.756Z,1015.41
2019-05-23T05:32:43.960Z,1015.45
2019-05-23T05:33:30.761Z,1015.48
2019-05-23T05:34:30.753Z,1015.47
2019-05-23T05:35:30.753Z,1015.55
2019-05-23T05:36:30.756Z,1015.62
2019-05-23T05:37:30.755Z,1015.64
2019-05-23T05:38:30.763Z,1015.63
2019-05-23T05:39:30.757Z,1015.63
2019-05-23T05:40:30.765Z,1015.61
2019-05-23T05:41:30.749Z,1015.62
2019-05-23T05:42:30.748Z,1015.59
2019-05-23T05:43:30.749Z,1015.67
2019-05-23T05:44:30.749Z,1015.64
2019-05-23T05:45:30.823Z,1015.67
2019-05-23T05:46:30.755Z,1015.70
2019-05-23T05:47:30.755Z,1015.75
2019-05-23T05:48:30.750Z,1015.82
2019-05-23T05:49:30.754Z,1015.86
2019-05-23T05:50:30.758Z,1015.86
2019-05-23T05:51:30.757Z,1015.84
2019-05-23T05:52:30.755Z,1015.92
2019-05-23T05:53:30.758Z,1015.94
2019-05-23T05:54:30.759Z,1015.94
2019-05-23T05:55:30.757Z,1015.78
2019-05-23T05:56:30.768Z,1015.73
2019-05-23T05:57:30.766Z,1015.96
2019-05-23T05:58:30.777Z,1015.96
2019-05-23T05:59:30.767Z,1016.00
2019-05-23T06:00:30.849Z,1016.08
2019-05-23T06:01:33.942Z,1016.01
2019-05-23T06:02:30.975Z,1016.12
2019-05-23T06:03:30.773Z,1016.10
2019-05-23T06:04:30.778Z,1016.05
2019-05-23T06:05:30.782Z,1016.03
2019-05-23T06:06:30.789Z,1016.13
2019-05-23T06:07:30.782Z,1016.25
2019-05-23T06:08:30.788Z,1016.26
2019-05-23T06:09:30.789Z,1016.11
2019-05-23T06:10:30.791Z,1016.18
2019-05-23T06:11:30.793Z,1016.24
2019-05-23T06:12:30.790Z,1016.31
2019-05-23T06:13:30.859Z,1016.30
2019-05-23T06:14:30.797Z,1016.17
2019-05-23T06:15:30.802Z,1016.01
2019-05-23T06:16:30.813Z,1016.04
2019-05-23T06:17:30.828Z,1016.16
2019-05-23T06:18:30.821Z,1016.24
2019-05-23T06:19:30.820Z,1016.21
2019-05-23T06:20:30.821Z,1016.19
2019-05-23T06:21:30.832Z,1016.38
2019-05-23T06:22:30.832Z,1016.39
2019-05-23T06:23:30.838Z,1016.42
2019-05-23T06:24:45.414Z,1016.45
2019-05-23T06:25:30.861Z,1016.51
2019-05-23T06:26:30.840Z,1016.44
2019-05-23T06:27:30.841Z,1016.52
2019-05-23T06:28:30.851Z,1016.48
2019-05-23T06:29:30.855Z,1016.52
2019-05-23T06:30:32.817Z,1016.55
2019-05-23T06:31:30.865Z,1016.54
2019-05-23T06:32:30.866Z,1016.57
2019-05-23T06:33:30.871Z,1016.51
2019-05-23T06:34:30.922Z,1016.55
2019-05-23T06:35:30.877Z,1016.58
2019-05-23T06:36:30.886Z,1016.64
2019-05-23T06:37:34.205Z,1016.61
2019-05-23T06:38:30.921Z,1016.61
2019-05-23T06:39:30.899Z,1016.64
2019-05-23T06:40:30.909Z,1016.65
2019-05-23T06:41:30.914Z,1016.64
2019-05-23T06:42:30.921Z,1016.60
2019-05-23T06:43:30.926Z,1016.65
2019-05-23T06:44:30.931Z,1016.62
2019-05-23T06:45:30.956Z,1016.65
2019-05-23T06:46:30.939Z,1016.66
2019-05-23T06:47:30.945Z,1016.65
2019-05-23T06:48:30.958Z,1016.68
2019-05-23T06:49:30.962Z,1016.66
2019-05-23T06:50:30.971Z,1016.77
2019-05-23T06:51:30.974Z,1016.68
2019-05-23T06:52:30.975Z,1016.71
2019-05-23T06:53:30.981Z,1016.75
2019-05-23T06:54:30.994Z,1016.76
2019-05-23T06:55:31.018Z,1016.82
2019-05-23T06:56:31.005Z,1016.83
2019-05-23T06:57:31.008Z,1016.80
2019-05-23T06:58:31.037Z,1016.81
2019-05-23T06:59:31.027Z,1016.73
2019-05-23T07:00:31.038Z,1016.72
2019-05-23T07:01:31.048Z,1016.67
2019-05-23T07:02:32.251Z,1016.68
2019-05-23T07:03:41.543Z,1016.74
2019-05-23T07:04:31.064Z,1016.75
2019-05-23T07:05:31.075Z,1016.81
2019-05-23T07:06:31.089Z,1016.91
2019-05-23T07:07:31.088Z,1016.91
2019-05-23T07:08:31.099Z,1016.90
2019-05-23T07:09:31.111Z,1016.86
2019-05-23T07:10:31.113Z,1016.91
2019-05-23T07:11:31.119Z,1016.90
2019-05-23T07:12:31.133Z,1016.90
2019-05-23T07:13:31.143Z,1016.86
2019-05-23T07:14:31.153Z,1016.80
2019-05-23T07:15:31.166Z,1016.78
2019-05-23T07:16:31.168Z,1016.59
2019-05-23T07:17:31.177Z,1016.82
2019-05-23T07:18:31.197Z,1016.89
2019-05-23T07:19:31.196Z,1016.90
2019-05-23T07:20:31.214Z,1016.86
2019-05-23T07:21:31.221Z,1016.91
2019-05-23T07:22:31.231Z,1016.92
2019-05-23T07:23:31.238Z,1016.96
2019-05-23T07:24:31.307Z,1016.89
2019-05-23T07:25:31.254Z,1016.94
2019-05-23T07:26:31.269Z,1016.95
2019-05-23T07:27:31.279Z,1016.96
2019-05-23T07:28:31.284Z,1016.91
2019-05-23T07:29:31.296Z,1016.91
2019-05-23T07:30:31.312Z,1016.94
2019-05-23T07:31:31.573Z,1016.92
2019-05-23T07:32:31.355Z,1016.93
2019-05-23T07:33:31.347Z,1016.97
2019-05-23T07:34:31.356Z,1016.97
2019-05-23T07:35:31.374Z,1017.00
2019-05-23T07:36:31.375Z,1017.03
2019-05-23T07:37:31.386Z,1016.97
2019-05-23T07:38:31.402Z,1016.96
2019-05-23T07:39:31.434Z,1016.99
2019-05-23T07:40:31.428Z,1016.74
2019-05-23T07:41:31.462Z,1016.81
2019-05-23T07:42:31.447Z,1016.77
2019-05-23T07:43:31.460Z,1016.76
2019-05-23T07:44:47.164Z,1016.84
2019-05-23T07:45:31.487Z,1016.89
2019-05-23T07:46:31.499Z,1016.92
2019-05-23T07:47:31.508Z,1016.93
2019-05-23T07:48:31.520Z,1016.99
2019-05-23T07:49:31.536Z,1016.96
2019-05-23T07:50:31.542Z,1016.09
2019-05-23T07:51:31.553Z,1016.06
2019-05-23T07:52:31.568Z,1016.11
2019-05-23T07:53:31.618Z,1016.06
2019-05-23T07:54:31.605Z,1016.09
2019-05-23T07:55:31.605Z,1016.09
2019-05-23T07:56:31.614Z,1016.07
2019-05-23T07:57:31.628Z,1016.13
2019-05-23T07:58:31.655Z,1016.10
2019-05-23T07:59:31.671Z,1016.10
2019-05-23T08:00:31.681Z,1016.15
2019-05-23T08:01:31.677Z,1016.09
2019-05-23T08:02:31.691Z,1016.07
2019-05-23T08:03:31.699Z,1016.05
2019-05-23T08:04:31.722Z,1016.21
2019-05-23T08:05:31.729Z,1016.21
2019-05-23T08:06:31.742Z,1016.10
2019-05-23T08:07:32.831Z,1016.12
2019-05-23T08:08:31.767Z,1016.16
2019-05-23T08:09:31.780Z,1016.20
2019-05-23T08:10:34.088Z,1016.25
2019-05-23T08:11:31.807Z,1016.26
2019-05-23T08:12:31.827Z,1016.31
2019-05-23T08:13:31.840Z,1016.33
2019-05-23T08:14:31.849Z,1016.41
2019-05-23T08:15:31.863Z,1016.44
2019-05-23T08:16:31.879Z,1016.41
2019-05-23T08:17:31.893Z,1016.27
2019-05-23T08:18:31.922Z,1016.39
2019-05-23T08:19:46.930Z,1016.38
2019-05-23T08:20:31.929Z,1016.43
2019-05-23T08:21:31.946Z,1016.48
2019-05-23T08:22:31.961Z,1016.48
2019-05-23T08:23:31.972Z,1016.56
2019-05-23T08:24:31.996Z,1016.61
2019-05-23T08:25:32.030Z,1016.67
2019-05-23T08:26:32.022Z,1016.71
2019-05-23T08:27:32.038Z,1016.72
2019-05-23T08:28:32.047Z,1016.76
2019-05-23T08:29:32.061Z,1016.82
2019-05-23T08:30:32.084Z,1016.84
2019-05-23T08:31:32.096Z,1016.85
2019-05-23T08:32:32.109Z,1016.84
2019-05-23T08:33:32.123Z,1016.61
2019-05-23T08:34:41.558Z,1016.78
2019-05-23T08:35:32.152Z,1016.69
2019-05-23T08:36:32.171Z,1016.75
2019-05-23T08:37:32.191Z,1016.72
2019-05-23T08:38:32.206Z,1016.74
2019-05-23T08:39:32.221Z,1016.92
2019-05-23T08:40:32.243Z,1016.87
2019-05-23T08:41:32.251Z,1016.94
2019-05-23T08:42:32.263Z,1016.90
2019-05-23T08:43:32.289Z,1016.83
2019-05-23T08:44:32.298Z,1016.91
2019-05-23T08:45:32.318Z,1016.62
2019-05-23T08:46:32.327Z,1016.84
2019-05-23T08:47:32.343Z,1016.62
2019-05-23T08:48:32.364Z,1016.61
2019-05-23T08:49:32.380Z,1016.69
2019-05-23T08:50:32.435Z,1016.46
2019-05-23T08:51:32.415Z,1016.34
2019-05-23T08:52:32.427Z,1016.48
2019-05-23T08:53:32.450Z,1016.44
2019-05-23T08:54:32.461Z,1016.32
2019-05-23T08:55:32.479Z,1016.40
2019-05-23T08:56:32.519Z,1016.36
2019-05-23T08:57:32.519Z,1016.33
2019-05-23T08:58:32.530Z,1016.22
2019-05-23T08:59:32.544Z,1016.20
2019-05-23T09:00:32.559Z,1016.26
2019-05-23T09:01:32.577Z,1016.27
2019-05-23T09:02:32.597Z,1016.35
2019-05-23T09:03:32.623Z,1016.41
2019-05-23T09:04:32.627Z,1016.41
2019-05-23T09:05:32.644Z,1016.45
2019-05-23T09:06:32.667Z,1016.33
2019-05-23T09:07:32.681Z,1016.40
2019-05-23T09:08:32.709Z,1016.27
2019-05-23T09:09:32.723Z,1016.32
2019-05-23T09:10:32.837Z,1016.33
2019-05-23T09:11:32.755Z,1015.82
2019-05-23T09:12:32.772Z,1015.86
2019-05-23T09:13:32.787Z,1015.82
2019-05-23T09:14:32.804Z,1015.76
2019-05-23T09:15:32.821Z,1015.69
2019-05-23T09:16:33.371Z,1015.74
2019-05-23T09:17:49.744Z,1015.75
2019-05-23T09:18:32.874Z,1015.73
2019-05-23T09:19:32.893Z,1015.73
2019-05-23T09:20:32.915Z,1015.75
2019-05-23T09:21:32.953Z,1015.76
2019-05-23T09:22:32.953Z,1015.78
2019-05-23T09:23:32.970Z,1015.82
2019-05-23T09:24:32.984Z,1015.79
2019-05-23T09:25:33.005Z,1015.80
2019-05-23T09:26:33.022Z,1015.81
2019-05-23T09:27:34.650Z,1015.80
2019-05-23T09:28:33.060Z,1015.80
2019-05-23T09:29:33.080Z,1015.76
2019-05-23T09:30:33.100Z,1015.78
2019-05-23T09:31:33.115Z,1015.72
2019-05-23T09:32:33.127Z,1015.75
2019-05-23T09:33:33.154Z,1015.72
2019-05-23T09:34:33.174Z,1015.73
2019-05-23T09:35:33.187Z,1015.73
2019-05-23T09:36:33.204Z,1015.73
2019-05-23T09:37:33.225Z,1015.68
2019-05-23T09:38:33.242Z,1015.71
2019-05-23T09:39:33.268Z,1015.63
2019-05-23T09:40:33.294Z,1015.62
2019-05-23T09:41:33.304Z,1015.57
2019-05-23T09:42:33.322Z,1015.51
2019-05-23T09:43:33.336Z,1015.53
2019-05-23T09:44:33.350Z,1015.40
2019-05-23T09:45:33.370Z,1015.33
2019-05-23T09:46:33.385Z,1015.41
2019-05-23T09:47:33.404Z,1015.33
2019-05-23T09:48:33.425Z,1015.34
2019-05-23T09:49:33.446Z,1015.39
2019-05-23T09:50:33.474Z,1015.41
2019-05-23T09:51:33.473Z,1015.34
2019-05-23T09:52:33.495Z,1015.37
2019-05-23T09:53:33.512Z,1015.38
2019-05-23T09:54:33.532Z,1015.40
2019-05-23T09:55:33.549Z,1015.35
2019-05-23T09:56:33.561Z,1015.34
2019-05-23T09:57:33.580Z,1015.32
2019-05-23T09:58:33.595Z,1015.27
2019-05-23T09:59:33.611Z,1015.23
2019-05-23T10:00:33.631Z,1015.24
2019-05-23T10:01:33.650Z,1015.20
2019-05-23T10:02:33.663Z,1015.15
2019-05-23T10:03:33.678Z,1015.16
2019-05-23T10:04:33.709Z,1015.15
2019-05-23T10:05:42.966Z,1015.19
2019-05-23T10:06:33.738Z,1015.15
2019-05-23T10:07:33.741Z,1015.13
2019-05-23T10:08:33.755Z,1015.12
2019-05-23T10:09:33.767Z,1015.16
2019-05-23T10:10:33.791Z,1015.18
2019-05-23T10:11:33.818Z,1015.17
2019-05-23T10:12:33.819Z,1015.20
2019-05-23T10:13:38.944Z,1015.20
2019-05-23T10:14:33.849Z,1015.13
2019-05-23T10:15:33.867Z,1015.14
2019-05-23T10:16:33.876Z,1015.13
2019-05-23T10:17:33.928Z,1015.14
2019-05-23T10:18:33.907Z,1015.12
2019-05-23T10:19:33.917Z,1015.12
2019-05-23T10:20:33.951Z,1015.11
2019-05-23T10:21:33.955Z,1015.10
2019-05-23T10:22:33.965Z,1015.07
2019-05-23T10:23:33.992Z,1015.01
2019-05-23T10:24:34.004Z,1014.96
2019-05-23T10:25:34.021Z,1014.96
2019-05-23T10:26:34.035Z,1014.99
2019-05-23T10:27:34.050Z,1014.99
2019-05-23T10:28:34.061Z,1015.00
2019-05-23T10:29:34.076Z,1014.93
2019-05-23T10:30:34.092Z,1014.91
2019-05-23T10:31:34.105Z,1014.98
2019-05-23T10:32:34.138Z,1014.97
2019-05-23T10:33:34.140Z,1014.99
2019-05-23T10:34:34.152Z,1014.96
2019-05-23T10:35:34.167Z,1014.98
2019-05-23T10:36:34.177Z,1014.98
2019-05-23T10:37:34.193Z,1014.94
2019-05-23T10:38:34.211Z,1014.91
2019-05-23T10:39:34.226Z,1014.98
2019-05-23T10:40:34.236Z,1014.89
2019-05-23T10:41:34.251Z,1014.91
2019-05-23T10:42:34.269Z,1014.92
2019-05-23T10:43:34.285Z,1014.84
2019-05-23T10:44:34.303Z,1014.88
2019-05-23T10:45:34.320Z,1014.88
2019-05-23T10:46:34.334Z,1014.81
2019-05-23T10:47:34.348Z,1014.78
2019-05-23T10:48:34.363Z,1014.78
2019-05-23T10:49:34.380Z,1014.72
2019-05-23T10:50:44.282Z,1014.78
2019-05-23T10:51:34.409Z,1014.76
2019-05-23T10:52:34.431Z,1014.77
2019-05-23T10:53:34.445Z,1014.76
2019-05-23T10:54:34.456Z,1014.68
2019-05-23T10:55:34.471Z,1014.67
2019-05-23T10:56:34.490Z,1014.72
2019-05-23T10:57:34.505Z,1014.65
2019-05-23T10:58:34.516Z,1014.68
2019-05-23T10:59:34.532Z,1014.44
2019-05-23T11:00:34.549Z,1014.45
2019-05-23T11:01:34.559Z,1014.43
2019-05-23T11:02:34.570Z,1014.57
2019-05-23T11:03:34.585Z,1014.60
2019-05-23T11:04:34.602Z,1014.58
2019-05-23T11:05:34.618Z,1014.52
2019-05-23T11:06:34.634Z,1014.55
2019-05-23T11:07:34.648Z,1014.30
2019-05-23T11:08:34.657Z,1014.29
2019-05-23T11:09:37.945Z,1014.24
2019-05-23T11:10:34.698Z,1014.43
2019-05-23T11:11:34.708Z,1014.43
2019-05-23T11:12:34.713Z,1014.33
2019-05-23T11:13:34.729Z,1014.35
2019-05-23T11:14:34.746Z,1014.36
2019-05-23T11:15:34.746Z,1014.31
2019-05-23T11:16:34.764Z,1014.27
2019-05-23T11:17:34.787Z,1014.19
2019-05-23T11:18:34.793Z,1014.21
2019-05-23T11:19:34.820Z,1014.16
2019-05-23T11:20:36.113Z,1014.12
2019-05-23T11:21:34.824Z,1014.05
2019-05-23T11:22:34.839Z,1014.06
2019-05-23T11:23:34.846Z,1014.05
2019-05-23T11:24:34.861Z,1014.04
2019-05-23T11:25:34.888Z,1013.97
2019-05-23T11:26:34.880Z,1014.00
2019-05-23T11:27:34.891Z,1013.97
2019-05-23T11:28:34.908Z,1014.01
2019-05-23T11:29:34.912Z,1013.93
2019-05-23T11:30:34.921Z,1013.86
2019-05-23T11:31:34.930Z,1013.85
2019-05-23T11:32:34.934Z,1013.84
2019-05-23T11:33:34.943Z,1013.79
2019-05-23T11:34:34.967Z,1013.83
2019-05-23T11:35:34.959Z,1013.93
2019-05-23T11:36:36.678Z,1013.75
2019-05-23T11:37:34.986Z,1013.83
2019-05-23T11:38:34.990Z,1013.87
2019-05-23T11:39:42.210Z,1013.80
2019-05-23T11:40:35.002Z,1013.81
2019-05-23T11:41:35.011Z,1013.84
2019-05-23T11:42:35.025Z,1013.79
2019-05-23T11:43:35.026Z,1013.77
2019-05-23T11:44:35.030Z,1013.73
2019-05-23T11:45:35.047Z,1013.70
2019-05-23T11:46:35.041Z,1013.70
2019-05-23T11:47:35.060Z,1013.68
2019-05-23T11:48:35.069Z,1013.68
2019-05-23T11:49:35.062Z,1013.64
2019-05-23T11:50:35.122Z,1013.61
2019-05-23T11:51:35.079Z,1013.59
2019-05-23T11:52:35.079Z,1013.55
2019-05-23T11:53:35.088Z,1013.58
2019-05-23T11:54:35.113Z,1013.53
2019-05-23T11:55:35.114Z,1013.60
2019-05-23T11:56:35.109Z,1013.60
2019-05-23T11:57:37.843Z,1013.67
2019-05-23T11:58:35.123Z,1013.65
2019-05-23T11:59:35.118Z,1013.61
2019-05-23T12:00:35.134Z,1013.56
2019-05-23T12:01:35.130Z,1013.57
2019-05-23T12:02:35.139Z,1013.55
2019-05-23T12:03:35.142Z,1013.55
2019-05-23T12:04:35.144Z,1013.51
2019-05-23T12:05:35.183Z,1013.50